sensor_id;sensor_type;location;lat;lon;timestamp;P1;durP1;ratioP1;P2;durP2;ratioP2
9467;SDS011;4772;52.382;9.752;2023-12-20T00:01:26;10.37;;;7.77;;
9467;SDS011;4772;52.382;9.752;2023-12-20T00:03:52;8.83;;;7.33;;
9467;SDS011;4772;52.382;9.752;2023-12-20T00:06:18;9.23;;;7.00;;
9467;SDS011;4772;52.382;9.752;2023-12-20T00:08:44;11.87;;;7.07;;
9467;SDS011;4772;52.382;9.752;2023-12-20T00:11:10;12.00;;;7.20;;
9467;SDS011;4772;52.382;9.752;2023-12-20T00:13:36;10.47;;;6.63;;
9467;SDS011;4772;52.382;9.752;2023-12-20T00:16:02;11.17;;;7.13;;
9467;SDS011;4772;52.382;9.752;2023-12-20T00:18:29;12.53;;;6.37;;
9467;SDS011;4772;52.382;9.752;2023-12-20T00:20:55;9.90;;;6.07;;
9467;SDS011;4772;52.382;9.752;2023-12-20T00:23:21;10.53;;;6.20;;
9467;SDS011;4772;52.382;9.752;2023-12-20T00:25:48;8.23;;;5.77;;
9467;SDS011;4772;52.382;9.752;2023-12-20T00:28:14;13.47;;;6.33;;
9467;SDS011;4772;52.382;9.752;2023-12-20T00:30:40;8.63;;;4.97;;
9467;SDS011;4772;52.382;9.752;2023-12-20T00:33:06;18.63;;;7.80;;
9467;SDS011;4772;52.382;9.752;2023-12-20T00:35:32;11.23;;;5.40;;
9467;SDS011;4772;52.382;9.752;2023-12-20T00:37:58;13.57;;;5.27;;
9467;SDS011;4772;52.382;9.752;2023-12-20T00:40:34;13.07;;;4.87;;
9467;SDS011;4772;52.382;9.752;2023-12-20T00:42:59;13.23;;;5.20;;
9467;SDS011;4772;52.382;9.752;2023-12-20T00:45:25;9.53;;;5.23;;
9467;SDS011;4772;52.382;9.752;2023-12-20T00:47:51;7.47;;;4.77;;
9467;SDS011;4772;52.382;9.752;2023-12-20T00:50:17;8.60;;;5.10;;
9467;SDS011;4772;52.382;9.752;2023-12-20T00:52:43;9.13;;;5.27;;
9467;SDS011;4772;52.382;9.752;2023-12-20T00:55:09;9.17;;;5.23;;
9467;SDS011;4772;52.382;9.752;2023-12-20T00:57:35;9.30;;;5.00;;
9467;SDS011;4772;52.382;9.752;2023-12-20T01:00:01;9.67;;;4.70;;
9467;SDS011;4772;52.382;9.752;2023-12-20T01:02:27;11.43;;;4.27;;
9467;SDS011;4772;52.382;9.752;2023-12-20T01:04:54;11.27;;;4.50;;
9467;SDS011;4772;52.382;9.752;2023-12-20T01:07:20;8.80;;;3.83;;
9467;SDS011;4772;52.382;9.752;2023-12-20T01:09:46;10.93;;;4.43;;
9467;SDS011;4772;52.382;9.752;2023-12-20T01:12:12;13.23;;;4.37;;
9467;SDS011;4772;52.382;9.752;2023-12-20T01:14:38;10.30;;;4.20;;
9467;SDS011;4772;52.382;9.752;2023-12-20T01:17:04;11.20;;;3.67;;
9467;SDS011;4772;52.382;9.752;2023-12-20T01:19:30;11.63;;;3.60;;
9467;SDS011;4772;52.382;9.752;2023-12-20T01:21:56;12.37;;;4.40;;
9467;SDS011;4772;52.382;9.752;2023-12-20T01:24:22;10.43;;;3.63;;
9467;SDS011;4772;52.382;9.752;2023-12-20T01:26:48;10.87;;;3.67;;
9467;SDS011;4772;52.382;9.752;2023-12-20T01:29:14;10.13;;;3.10;;
9467;SDS011;4772;52.382;9.752;2023-12-20T01:31:41;10.57;;;3.60;;
9467;SDS011;4772;52.382;9.752;2023-12-20T01:34:07;11.90;;;3.60;;
9467;SDS011;4772;52.382;9.752;2023-12-20T01:36:32;10.20;;;3.33;;
9467;SDS011;4772;52.382;9.752;2023-12-20T01:38:58;6.23;;;2.70;;
9467;SDS011;4772;52.382;9.752;2023-12-20T01:41:24;10.40;;;3.17;;
9467;SDS011;4772;52.382;9.752;2023-12-20T01:43:50;11.47;;;3.07;;
9467;SDS011;4772;52.382;9.752;2023-12-20T01:46:18;8.60;;;3.30;;
9467;SDS011;4772;52.382;9.752;2023-12-20T01:48:44;12.67;;;3.53;;
9467;SDS011;4772;52.382;9.752;2023-12-20T01:51:10;10.37;;;2.90;;
9467;SDS011;4772;52.382;9.752;2023-12-20T01:53:36;8.60;;;2.93;;
9467;SDS011;4772;52.382;9.752;2023-12-20T01:56:03;9.70;;;3.30;;
9467;SDS011;4772;52.382;9.752;2023-12-20T01:58:29;9.77;;;3.00;;
9467;SDS011;4772;52.382;9.752;2023-12-20T02:00:56;11.60;;;2.83;;
9467;SDS011;4772;52.382;9.752;2023-12-20T02:03:23;11.63;;;3.27;;
9467;SDS011;4772;52.382;9.752;2023-12-20T02:05:49;10.97;;;3.07;;
9467;SDS011;4772;52.382;9.752;2023-12-20T02:08:15;10.30;;;2.87;;
9467;SDS011;4772;52.382;9.752;2023-12-20T02:10:41;11.60;;;3.40;;
9467;SDS011;4772;52.382;9.752;2023-12-20T02:13:07;10.07;;;3.03;;
9467;SDS011;4772;52.382;9.752;2023-12-20T02:15:34;11.00;;;2.87;;
9467;SDS011;4772;52.382;9.752;2023-12-20T02:18:01;8.63;;;2.50;;
9467;SDS011;4772;52.382;9.752;2023-12-20T02:20:27;9.77;;;2.43;;
9467;SDS011;4772;52.382;9.752;2023-12-20T02:22:53;9.50;;;3.13;;
9467;SDS011;4772;52.382;9.752;2023-12-20T02:25:19;13.17;;;2.73;;
9467;SDS011;4772;52.382;9.752;2023-12-20T02:27:45;8.07;;;2.90;;
9467;SDS011;4772;52.382;9.752;2023-12-20T02:30:11;13.73;;;3.20;;
9467;SDS011;4772;52.382;9.752;2023-12-20T02:32:37;10.63;;;3.10;;
9467;SDS011;4772;52.382;9.752;2023-12-20T02:35:03;10.73;;;3.10;;
9467;SDS011;4772;52.382;9.752;2023-12-20T02:37:29;14.33;;;3.43;;
9467;SDS011;4772;52.382;9.752;2023-12-20T02:39:55;8.97;;;2.87;;
9467;SDS011;4772;52.382;9.752;2023-12-20T02:42:21;8.80;;;3.83;;
9467;SDS011;4772;52.382;9.752;2023-12-20T02:44:47;9.57;;;3.23;;
9467;SDS011;4772;52.382;9.752;2023-12-20T02:47:13;9.10;;;3.20;;
9467;SDS011;4772;52.382;9.752;2023-12-20T02:49:39;9.50;;;3.30;;
9467;SDS011;4772;52.382;9.752;2023-12-20T02:52:05;10.03;;;3.90;;
9467;SDS011;4772;52.382;9.752;2023-12-20T02:54:31;11.93;;;3.70;;
9467;SDS011;4772;52.382;9.752;2023-12-20T02:56:57;13.43;;;3.50;;
9467;SDS011;4772;52.382;9.752;2023-12-20T02:59:23;10.67;;;3.60;;
9467;SDS011;4772;52.382;9.752;2023-12-20T03:01:49;8.70;;;3.20;;
9467;SDS011;4772;52.382;9.752;2023-12-20T03:04:15;10.13;;;3.57;;
9467;SDS011;4772;52.382;9.752;2023-12-20T03:06:41;8.50;;;3.60;;
9467;SDS011;4772;52.382;9.752;2023-12-20T03:09:07;14.87;;;3.77;;
9467;SDS011;4772;52.382;9.752;2023-12-20T03:11:33;8.27;;;3.37;;
9467;SDS011;4772;52.382;9.752;2023-12-20T03:13:59;14.37;;;3.40;;
9467;SDS011;4772;52.382;9.752;2023-12-20T03:16:25;10.33;;;3.30;;
9467;SDS011;4772;52.382;9.752;2023-12-20T03:18:51;12.73;;;2.50;;
9467;SDS011;4772;52.382;9.752;2023-12-20T03:21:17;16.37;;;3.37;;
9467;SDS011;4772;52.382;9.752;2023-12-20T03:23:43;7.70;;;2.40;;
9467;SDS011;4772;52.382;9.752;2023-12-20T03:26:09;11.50;;;2.60;;
9467;SDS011;4772;52.382;9.752;2023-12-20T03:28:35;11.80;;;2.53;;
9467;SDS011;4772;52.382;9.752;2023-12-20T03:31:02;8.70;;;2.30;;
9467;SDS011;4772;52.382;9.752;2023-12-20T03:33:28;8.50;;;2.30;;
9467;SDS011;4772;52.382;9.752;2023-12-20T03:35:54;11.43;;;2.40;;
9467;SDS011;4772;52.382;9.752;2023-12-20T03:38:21;6.50;;;2.07;;
9467;SDS011;4772;52.382;9.752;2023-12-20T03:40:48;11.13;;;2.43;;
9467;SDS011;4772;52.382;9.752;2023-12-20T03:43:14;7.33;;;1.60;;
9467;SDS011;4772;52.382;9.752;2023-12-20T03:45:41;10.23;;;2.53;;
9467;SDS011;4772;52.382;9.752;2023-12-20T03:48:07;8.33;;;2.20;;
9467;SDS011;4772;52.382;9.752;2023-12-20T03:50:33;12.77;;;2.20;;
9467;SDS011;4772;52.382;9.752;2023-12-20T03:52:59;7.93;;;2.23;;
9467;SDS011;4772;52.382;9.752;2023-12-20T03:55:25;12.03;;;1.90;;
9467;SDS011;4772;52.382;9.752;2023-12-20T03:57:51;8.97;;;2.40;;
9467;SDS011;4772;52.382;9.752;2023-12-20T04:00:17;10.97;;;2.40;;
9467;SDS011;4772;52.382;9.752;2023-12-20T04:02:43;7.97;;;1.63;;
9467;SDS011;4772;52.382;9.752;2023-12-20T04:05:09;10.03;;;2.20;;
9467;SDS011;4772;52.382;9.752;2023-12-20T04:07:36;10.50;;;1.90;;
9467;SDS011;4772;52.382;9.752;2023-12-20T04:10:02;15.57;;;2.90;;
9467;SDS011;4772;52.382;9.752;2023-12-20T04:12:28;12.57;;;2.97;;
9467;SDS011;4772;52.382;9.752;2023-12-20T04:14:54;9.63;;;2.30;;
9467;SDS011;4772;52.382;9.752;2023-12-20T04:17:20;8.70;;;2.20;;
9467;SDS011;4772;52.382;9.752;2023-12-20T04:19:48;9.70;;;2.43;;
9467;SDS011;4772;52.382;9.752;2023-12-20T04:22:14;7.23;;;2.03;;
9467;SDS011;4772;52.382;9.752;2023-12-20T04:24:40;9.40;;;2.67;;
9467;SDS011;4772;52.382;9.752;2023-12-20T04:27:07;10.80;;;2.00;;
9467;SDS011;4772;52.382;9.752;2023-12-20T04:29:33;11.53;;;2.40;;
9467;SDS011;4772;52.382;9.752;2023-12-20T04:31:59;10.03;;;2.40;;
9467;SDS011;4772;52.382;9.752;2023-12-20T04:34:25;8.40;;;2.50;;
9467;SDS011;4772;52.382;9.752;2023-12-20T04:36:51;7.00;;;2.47;;
9467;SDS011;4772;52.382;9.752;2023-12-20T04:39:17;12.17;;;2.83;;
9467;SDS011;4772;52.382;9.752;2023-12-20T04:41:43;14.70;;;2.87;;
9467;SDS011;4772;52.382;9.752;2023-12-20T04:44:09;10.00;;;2.83;;
9467;SDS011;4772;52.382;9.752;2023-12-20T04:46:35;8.57;;;2.97;;
9467;SDS011;4772;52.382;9.752;2023-12-20T04:49:01;13.60;;;2.90;;
9467;SDS011;4772;52.382;9.752;2023-12-20T04:51:27;11.40;;;2.80;;
9467;SDS011;4772;52.382;9.752;2023-12-20T04:53:53;10.07;;;3.20;;
9467;SDS011;4772;52.382;9.752;2023-12-20T04:56:19;10.30;;;2.63;;
9467;SDS011;4772;52.382;9.752;2023-12-20T04:58:45;9.87;;;3.07;;
9467;SDS011;4772;52.382;9.752;2023-12-20T05:01:12;17.83;;;2.93;;
9467;SDS011;4772;52.382;9.752;2023-12-20T05:03:38;10.07;;;2.63;;
9467;SDS011;4772;52.382;9.752;2023-12-20T05:06:04;13.63;;;2.67;;
9467;SDS011;4772;52.382;9.752;2023-12-20T05:08:30;13.57;;;3.27;;
9467;SDS011;4772;52.382;9.752;2023-12-20T05:10:56;10.90;;;3.27;;
9467;SDS011;4772;52.382;9.752;2023-12-20T05:13:22;16.23;;;3.20;;
9467;SDS011;4772;52.382;9.752;2023-12-20T05:15:48;14.30;;;3.00;;
9467;SDS011;4772;52.382;9.752;2023-12-20T05:18:14;8.70;;;2.50;;
9467;SDS011;4772;52.382;9.752;2023-12-20T05:20:40;12.80;;;3.00;;
9467;SDS011;4772;52.382;9.752;2023-12-20T05:23:06;10.23;;;3.17;;
9467;SDS011;4772;52.382;9.752;2023-12-20T05:25:33;13.73;;;2.67;;
9467;SDS011;4772;52.382;9.752;2023-12-20T05:27:59;12.40;;;2.97;;
9467;SDS011;4772;52.382;9.752;2023-12-20T05:30:25;10.77;;;3.57;;
9467;SDS011;4772;52.382;9.752;2023-12-20T05:32:51;11.63;;;3.20;;
9467;SDS011;4772;52.382;9.752;2023-12-20T05:35:17;18.47;;;3.20;;
9467;SDS011;4772;52.382;9.752;2023-12-20T05:37:44;12.37;;;3.43;;
9467;SDS011;4772;52.382;9.752;2023-12-20T05:40:10;15.37;;;3.50;;
9467;SDS011;4772;52.382;9.752;2023-12-20T05:42:36;15.47;;;4.07;;
9467;SDS011;4772;52.382;9.752;2023-12-20T05:45:03;13.03;;;3.70;;
9467;SDS011;4772;52.382;9.752;2023-12-20T05:47:29;8.47;;;3.37;;
9467;SDS011;4772;52.382;9.752;2023-12-20T05:49:55;14.33;;;3.77;;
9467;SDS011;4772;52.382;9.752;2023-12-20T05:52:21;12.50;;;3.60;;
9467;SDS011;4772;52.382;9.752;2023-12-20T05:54:47;6.60;;;3.07;;
9467;SDS011;4772;52.382;9.752;2023-12-20T05:57:13;11.17;;;3.17;;
9467;SDS011;4772;52.382;9.752;2023-12-20T05:59:39;13.93;;;3.27;;
9467;SDS011;4772;52.382;9.752;2023-12-20T06:02:05;15.33;;;3.70;;
9467;SDS011;4772;52.382;9.752;2023-12-20T06:04:31;11.20;;;3.60;;
9467;SDS011;4772;52.382;9.752;2023-12-20T06:06:57;11.00;;;3.27;;
9467;SDS011;4772;52.382;9.752;2023-12-20T06:09:24;14.77;;;3.43;;
9467;SDS011;4772;52.382;9.752;2023-12-20T06:11:50;9.63;;;3.37;;
9467;SDS011;4772;52.382;9.752;2023-12-20T06:14:16;11.77;;;3.37;;
9467;SDS011;4772;52.382;9.752;2023-12-20T06:16:42;9.37;;;3.37;;
9467;SDS011;4772;52.382;9.752;2023-12-20T06:19:08;14.97;;;3.77;;
9467;SDS011;4772;52.382;9.752;2023-12-20T06:21:34;12.73;;;3.87;;
9467;SDS011;4772;52.382;9.752;2023-12-20T06:24:00;14.43;;;3.93;;
9467;SDS011;4772;52.382;9.752;2023-12-20T06:26:26;12.87;;;3.83;;
9467;SDS011;4772;52.382;9.752;2023-12-20T06:28:52;12.40;;;3.30;;
9467;SDS011;4772;52.382;9.752;2023-12-20T06:31:18;16.00;;;4.17;;
9467;SDS011;4772;52.382;9.752;2023-12-20T06:33:44;13.13;;;3.80;;
9467;SDS011;4772;52.382;9.752;2023-12-20T06:36:13;13.73;;;4.03;;
9467;SDS011;4772;52.382;9.752;2023-12-20T06:38:39;17.23;;;4.67;;
9467;SDS011;4772;52.382;9.752;2023-12-20T06:41:07;15.97;;;3.93;;
9467;SDS011;4772;52.382;9.752;2023-12-20T06:43:33;17.70;;;4.17;;
9467;SDS011;4772;52.382;9.752;2023-12-20T06:46:02;15.50;;;3.87;;
9467;SDS011;4772;52.382;9.752;2023-12-20T06:48:28;17.73;;;4.33;;
9467;SDS011;4772;52.382;9.752;2023-12-20T06:50:54;16.30;;;4.10;;
9467;SDS011;4772;52.382;9.752;2023-12-20T06:53:20;13.10;;;3.67;;
9467;SDS011;4772;52.382;9.752;2023-12-20T06:55:46;13.03;;;3.73;;
9467;SDS011;4772;52.382;9.752;2023-12-20T06:58:12;11.67;;;3.80;;
9467;SDS011;4772;52.382;9.752;2023-12-20T07:00:38;11.10;;;3.50;;
9467;SDS011;4772;52.382;9.752;2023-12-20T07:03:04;19.83;;;3.93;;
9467;SDS011;4772;52.382;9.752;2023-12-20T07:05:30;11.60;;;4.03;;
9467;SDS011;4772;52.382;9.752;2023-12-20T07:07:58;14.00;;;3.93;;
9467;SDS011;4772;52.382;9.752;2023-12-20T07:10:24;13.57;;;3.80;;
9467;SDS011;4772;52.382;9.752;2023-12-20T07:12:50;14.93;;;3.90;;
9467;SDS011;4772;52.382;9.752;2023-12-20T07:15:17;17.83;;;3.63;;
9467;SDS011;4772;52.382;9.752;2023-12-20T07:17:43;15.70;;;4.10;;
9467;SDS011;4772;52.382;9.752;2023-12-20T07:20:09;17.47;;;3.90;;
9467;SDS011;4772;52.382;9.752;2023-12-20T07:22:36;12.30;;;3.43;;
9467;SDS011;4772;52.382;9.752;2023-12-20T07:25:02;17.50;;;4.47;;
9467;SDS011;4772;52.382;9.752;2023-12-20T07:27:28;17.40;;;3.87;;
9467;SDS011;4772;52.382;9.752;2023-12-20T07:29:54;14.47;;;3.40;;
9467;SDS011;4772;52.382;9.752;2023-12-20T07:32:20;13.30;;;3.70;;
9467;SDS011;4772;52.382;9.752;2023-12-20T07:34:46;20.50;;;4.07;;
9467;SDS011;4772;52.382;9.752;2023-12-20T07:37:12;15.23;;;3.63;;
9467;SDS011;4772;52.382;9.752;2023-12-20T07:39:39;10.30;;;3.50;;
9467;SDS011;4772;52.382;9.752;2023-12-20T07:42:06;16.17;;;3.93;;
9467;SDS011;4772;52.382;9.752;2023-12-20T07:44:32;20.03;;;4.07;;
9467;SDS011;4772;52.382;9.752;2023-12-20T07:46:57;18.83;;;4.03;;
9467;SDS011;4772;52.382;9.752;2023-12-20T07:49:23;15.23;;;4.23;;
9467;SDS011;4772;52.382;9.752;2023-12-20T07:51:50;13.43;;;3.67;;
9467;SDS011;4772;52.382;9.752;2023-12-20T07:54:16;13.40;;;3.07;;
9467;SDS011;4772;52.382;9.752;2023-12-20T07:56:42;12.77;;;3.40;;
9467;SDS011;4772;52.382;9.752;2023-12-20T07:59:09;12.67;;;3.60;;
9467;SDS011;4772;52.382;9.752;2023-12-20T08:01:35;14.97;;;3.80;;
9467;SDS011;4772;52.382;9.752;2023-12-20T08:04:01;20.80;;;4.33;;
9467;SDS011;4772;52.382;9.752;2023-12-20T08:06:27;17.47;;;4.60;;
9467;SDS011;4772;52.382;9.752;2023-12-20T08:08:53;14.20;;;4.07;;
9467;SDS011;4772;52.382;9.752;2023-12-20T08:11:19;17.00;;;4.30;;
9467;SDS011;4772;52.382;9.752;2023-12-20T08:13:45;17.10;;;3.73;;
9467;SDS011;4772;52.382;9.752;2023-12-20T08:16:11;9.17;;;3.60;;
9467;SDS011;4772;52.382;9.752;2023-12-20T08:18:38;17.47;;;4.63;;
9467;SDS011;4772;52.382;9.752;2023-12-20T08:21:04;12.63;;;3.67;;
9467;SDS011;4772;52.382;9.752;2023-12-20T08:23:32;14.13;;;4.30;;
9467;SDS011;4772;52.382;9.752;2023-12-20T08:26:02;10.07;;;4.03;;
9467;SDS011;4772;52.382;9.752;2023-12-20T08:28:28;14.47;;;4.80;;
9467;SDS011;4772;52.382;9.752;2023-12-20T08:30:56;13.57;;;4.47;;
9467;SDS011;4772;52.382;9.752;2023-12-20T08:33:22;13.10;;;4.27;;
9467;SDS011;4772;52.382;9.752;2023-12-20T08:35:48;9.83;;;3.17;;
9467;SDS011;4772;52.382;9.752;2023-12-20T08:38:14;14.10;;;4.10;;
9467;SDS011;4772;52.382;9.752;2023-12-20T08:40:40;15.13;;;5.17;;
9467;SDS011;4772;52.382;9.752;2023-12-20T08:43:06;16.00;;;3.70;;
9467;SDS011;4772;52.382;9.752;2023-12-20T08:45:32;13.20;;;3.80;;
9467;SDS011;4772;52.382;9.752;2023-12-20T08:47:58;14.47;;;3.90;;
9467;SDS011;4772;52.382;9.752;2023-12-20T08:50:24;15.30;;;4.20;;
9467;SDS011;4772;52.382;9.752;2023-12-20T08:52:50;16.47;;;4.40;;
9467;SDS011;4772;52.382;9.752;2023-12-20T08:55:17;12.53;;;3.30;;
9467;SDS011;4772;52.382;9.752;2023-12-20T08:57:43;12.37;;;3.67;;
9467;SDS011;4772;52.382;9.752;2023-12-20T09:00:09;11.50;;;3.57;;
9467;SDS011;4772;52.382;9.752;2023-12-20T09:02:35;11.73;;;3.60;;
9467;SDS011;4772;52.382;9.752;2023-12-20T09:05:02;10.17;;;3.33;;
9467;SDS011;4772;52.382;9.752;2023-12-20T09:07:28;13.77;;;3.47;;
9467;SDS011;4772;52.382;9.752;2023-12-20T09:09:56;10.10;;;3.40;;
9467;SDS011;4772;52.382;9.752;2023-12-20T09:12:23;10.33;;;3.97;;
9467;SDS011;4772;52.382;9.752;2023-12-20T09:14:49;8.03;;;3.30;;
9467;SDS011;4772;52.382;9.752;2023-12-20T09:17:16;14.25;;;4.32;;
9467;SDS011;4772;52.382;9.752;2023-12-20T09:19:42;9.73;;;3.87;;
9467;SDS011;4772;52.382;9.752;2023-12-20T09:22:09;12.33;;;3.67;;
9467;SDS011;4772;52.382;9.752;2023-12-20T09:24:35;11.87;;;4.17;;
9467;SDS011;4772;52.382;9.752;2023-12-20T09:27:01;13.23;;;4.03;;
9467;SDS011;4772;52.382;9.752;2023-12-20T09:29:27;11.47;;;3.67;;
9467;SDS011;4772;52.382;9.752;2023-12-20T09:31:53;8.50;;;3.87;;
9467;SDS011;4772;52.382;9.752;2023-12-20T09:34:19;11.17;;;3.90;;
9467;SDS011;4772;52.382;9.752;2023-12-20T09:36:46;14.03;;;3.93;;
9467;SDS011;4772;52.382;9.752;2023-12-20T09:39:16;12.00;;;4.00;;
9467;SDS011;4772;52.382;9.752;2023-12-20T09:42:00;18.10;;;4.30;;
9467;SDS011;4772;52.382;9.752;2023-12-20T09:44:26;10.87;;;3.20;;
9467;SDS011;4772;52.382;9.752;2023-12-20T09:46:52;9.97;;;3.97;;
9467;SDS011;4772;52.382;9.752;2023-12-20T09:49:18;17.40;;;4.23;;
9467;SDS011;4772;52.382;9.752;2023-12-20T09:51:46;15.87;;;4.20;;
9467;SDS011;4772;52.382;9.752;2023-12-20T09:54:16;10.47;;;3.40;;
9467;SDS011;4772;52.382;9.752;2023-12-20T09:56:42;11.27;;;3.70;;
9467;SDS011;4772;52.382;9.752;2023-12-20T09:59:08;9.33;;;3.60;;
9467;SDS011;4772;52.382;9.752;2023-12-20T10:01:35;14.37;;;3.97;;
9467;SDS011;4772;52.382;9.752;2023-12-20T10:04:02;9.83;;;3.33;;
9467;SDS011;4772;52.382;9.752;2023-12-20T10:06:29;9.33;;;3.23;;
9467;SDS011;4772;52.382;9.752;2023-12-20T10:08:55;10.00;;;3.43;;
9467;SDS011;4772;52.382;9.752;2023-12-20T10:11:21;14.90;;;3.67;;
9467;SDS011;4772;52.382;9.752;2023-12-20T10:13:47;13.47;;;3.53;;
9467;SDS011;4772;52.382;9.752;2023-12-20T10:16:14;15.07;;;3.87;;
9467;SDS011;4772;52.382;9.752;2023-12-20T10:18:40;14.60;;;3.77;;
9467;SDS011;4772;52.382;9.752;2023-12-20T10:21:06;9.70;;;3.30;;
9467;SDS011;4772;52.382;9.752;2023-12-20T10:23:36;11.17;;;3.37;;
9467;SDS011;4772;52.382;9.752;2023-12-20T10:26:04;10.53;;;3.83;;
9467;SDS011;4772;52.382;9.752;2023-12-20T10:28:33;16.40;;;3.83;;
9467;SDS011;4772;52.382;9.752;2023-12-20T10:30:59;14.70;;;3.73;;
9467;SDS011;4772;52.382;9.752;2023-12-20T10:33:28;10.87;;;3.17;;
9467;SDS011;4772;52.382;9.752;2023-12-20T10:35:55;10.63;;;3.40;;
9467;SDS011;4772;52.382;9.752;2023-12-20T10:38:21;11.87;;;3.63;;
9467;SDS011;4772;52.382;9.752;2023-12-20T10:40:48;13.30;;;3.37;;
9467;SDS011;4772;52.382;9.752;2023-12-20T10:43:14;11.33;;;3.20;;
9467;SDS011;4772;52.382;9.752;2023-12-20T10:45:41;10.77;;;3.37;;
9467;SDS011;4772;52.382;9.752;2023-12-20T10:48:11;12.00;;;3.37;;
9467;SDS011;4772;52.382;9.752;2023-12-20T10:50:37;13.53;;;3.47;;
9467;SDS011;4772;52.382;9.752;2023-12-20T10:53:04;13.00;;;2.83;;
9467;SDS011;4772;52.382;9.752;2023-12-20T10:55:31;8.13;;;3.13;;
9467;SDS011;4772;52.382;9.752;2023-12-20T10:58:02;11.53;;;2.93;;
9467;SDS011;4772;52.382;9.752;2023-12-20T11:00:30;8.83;;;3.40;;
9467;SDS011;4772;52.382;9.752;2023-12-20T11:02:58;12.03;;;3.50;;
9467;SDS011;4772;52.382;9.752;2023-12-20T11:08:01;8.93;;;2.97;;
9467;SDS011;4772;52.382;9.752;2023-12-20T11:10:33;10.90;;;3.83;;
9467;SDS011;4772;52.382;9.752;2023-12-20T11:13:08;10.70;;;3.83;;
9467;SDS011;4772;52.382;9.752;2023-12-20T11:15:36;11.10;;;3.07;;
9467;SDS011;4772;52.382;9.752;2023-12-20T11:18:03;11.97;;;3.53;;
9467;SDS011;4772;52.382;9.752;2023-12-20T11:20:39;11.03;;;3.30;;
9467;SDS011;4772;52.382;9.752;2023-12-20T11:23:06;9.70;;;3.10;;
9467;SDS011;4772;52.382;9.752;2023-12-20T11:28:16;13.57;;;3.67;;
9467;SDS011;4772;52.382;9.752;2023-12-20T11:33:14;9.23;;;3.77;;
9467;SDS011;4772;52.382;9.752;2023-12-20T11:35:41;10.87;;;3.50;;
9467;SDS011;4772;52.382;9.752;2023-12-20T11:38:08;11.37;;;3.80;;
9467;SDS011;4772;52.382;9.752;2023-12-20T11:40:34;10.37;;;3.67;;
9467;SDS011;4772;52.382;9.752;2023-12-20T11:43:00;12.53;;;3.60;;
9467;SDS011;4772;52.382;9.752;2023-12-20T11:45:26;11.73;;;3.70;;
9467;SDS011;4772;52.382;9.752;2023-12-20T11:47:53;10.27;;;3.90;;
9467;SDS011;4772;52.382;9.752;2023-12-20T11:50:19;8.77;;;3.20;;
9467;SDS011;4772;52.382;9.752;2023-12-20T11:52:46;5.83;;;2.27;;
9467;SDS011;4772;52.382;9.752;2023-12-20T11:55:12;5.97;;;2.30;;
9467;SDS011;4772;52.382;9.752;2023-12-20T11:57:38;5.43;;;2.00;;
9467;SDS011;4772;52.382;9.752;2023-12-20T12:00:04;4.10;;;2.10;;
9467;SDS011;4772;52.382;9.752;2023-12-20T12:02:31;5.27;;;1.47;;
9467;SDS011;4772;52.382;9.752;2023-12-20T12:04:57;7.03;;;1.60;;
9467;SDS011;4772;52.382;9.752;2023-12-20T12:07:23;2.83;;;1.40;;
9467;SDS011;4772;52.382;9.752;2023-12-20T12:09:50;2.50;;;1.40;;
9467;SDS011;4772;52.382;9.752;2023-12-20T12:12:16;4.70;;;1.40;;
9467;SDS011;4772;52.382;9.752;2023-12-20T12:14:43;3.63;;;1.43;;
9467;SDS011;4772;52.382;9.752;2023-12-20T12:17:10;4.70;;;1.57;;
9467;SDS011;4772;52.382;9.752;2023-12-20T12:19:37;3.43;;;1.30;;
9467;SDS011;4772;52.382;9.752;2023-12-20T12:24:44;2.07;;;1.10;;
9467;SDS011;4772;52.382;9.752;2023-12-20T12:27:11;3.87;;;1.30;;
9467;SDS011;4772;52.382;9.752;2023-12-20T12:29:37;1.90;;;1.00;;
9467;SDS011;4772;52.382;9.752;2023-12-20T12:32:07;1.67;;;1.10;;
9467;SDS011;4772;52.382;9.752;2023-12-20T12:34:33;3.23;;;1.40;;
9467;SDS011;4772;52.382;9.752;2023-12-20T12:37:00;4.53;;;1.13;;
9467;SDS011;4772;52.382;9.752;2023-12-20T12:39:26;3.70;;;1.40;;
9467;SDS011;4772;52.382;9.752;2023-12-20T12:41:52;3.20;;;1.20;;
9467;SDS011;4772;52.382;9.752;2023-12-20T12:44:18;2.57;;;1.20;;
9467;SDS011;4772;52.382;9.752;2023-12-20T12:46:47;4.23;;;1.50;;
9467;SDS011;4772;52.382;9.752;2023-12-20T12:49:16;2.00;;;1.07;;
9467;SDS011;4772;52.382;9.752;2023-12-20T12:51:42;4.17;;;1.47;;
9467;SDS011;4772;52.382;9.752;2023-12-20T12:54:08;2.83;;;1.07;;
9467;SDS011;4772;52.382;9.752;2023-12-20T12:56:35;3.53;;;1.20;;
9467;SDS011;4772;52.382;9.752;2023-12-20T12:59:01;2.43;;;1.30;;
9467;SDS011;4772;52.382;9.752;2023-12-20T13:01:27;2.13;;;1.13;;
9467;SDS011;4772;52.382;9.752;2023-12-20T13:03:53;4.43;;;1.43;;
9467;SDS011;4772;52.382;9.752;2023-12-20T13:06:19;3.47;;;2.00;;
9467;SDS011;4772;52.382;9.752;2023-12-20T13:08:45;4.50;;;1.70;;
9467;SDS011;4772;52.382;9.752;2023-12-20T13:11:11;4.63;;;1.70;;
9467;SDS011;4772;52.382;9.752;2023-12-20T13:13:38;4.63;;;1.80;;
9467;SDS011;4772;52.382;9.752;2023-12-20T13:16:04;6.47;;;1.90;;
9467;SDS011;4772;52.382;9.752;2023-12-20T13:18:30;6.57;;;2.03;;
9467;SDS011;4772;52.382;9.752;2023-12-20T13:20:56;3.37;;;1.90;;
9467;SDS011;4772;52.382;9.752;2023-12-20T13:23:22;6.50;;;1.63;;
9467;SDS011;4772;52.382;9.752;2023-12-20T13:25:48;8.17;;;1.60;;
9467;SDS011;4772;52.382;9.752;2023-12-20T13:28:14;4.40;;;1.77;;
9467;SDS011;4772;52.382;9.752;2023-12-20T13:30:40;3.23;;;1.40;;
9467;SDS011;4772;52.382;9.752;2023-12-20T13:33:06;4.27;;;1.40;;
9467;SDS011;4772;52.382;9.752;2023-12-20T13:35:33;4.20;;;1.60;;
9467;SDS011;4772;52.382;9.752;2023-12-20T13:38:00;3.13;;;1.40;;
9467;SDS011;4772;52.382;9.752;2023-12-20T13:40:26;3.57;;;1.63;;
9467;SDS011;4772;52.382;9.752;2023-12-20T13:42:53;4.50;;;1.50;;
9467;SDS011;4772;52.382;9.752;2023-12-20T13:45:20;4.07;;;1.40;;
9467;SDS011;4772;52.382;9.752;2023-12-20T13:47:45;5.33;;;1.60;;
9467;SDS011;4772;52.382;9.752;2023-12-20T13:50:12;4.23;;;1.50;;
9467;SDS011;4772;52.382;9.752;2023-12-20T13:52:38;5.73;;;1.60;;
9467;SDS011;4772;52.382;9.752;2023-12-20T13:55:04;4.23;;;1.50;;
9467;SDS011;4772;52.382;9.752;2023-12-20T13:57:32;6.53;;;1.60;;
9467;SDS011;4772;52.382;9.752;2023-12-20T13:59:59;5.80;;;1.53;;
9467;SDS011;4772;52.382;9.752;2023-12-20T14:02:25;3.70;;;1.80;;
9467;SDS011;4772;52.382;9.752;2023-12-20T14:04:51;5.47;;;2.00;;
9467;SDS011;4772;52.382;9.752;2023-12-20T14:07:17;5.43;;;2.17;;
9467;SDS011;4772;52.382;9.752;2023-12-20T14:09:43;3.57;;;1.80;;
9467;SDS011;4772;52.382;9.752;2023-12-20T14:12:13;4.93;;;1.90;;
9467;SDS011;4772;52.382;9.752;2023-12-20T14:14:39;5.33;;;1.87;;
9467;SDS011;4772;52.382;9.752;2023-12-20T14:17:05;6.30;;;1.73;;
9467;SDS011;4772;52.382;9.752;2023-12-20T14:19:34;4.67;;;1.60;;
9467;SDS011;4772;52.382;9.752;2023-12-20T14:22:00;5.73;;;1.77;;
9467;SDS011;4772;52.382;9.752;2023-12-20T14:24:27;4.13;;;1.80;;
9467;SDS011;4772;52.382;9.752;2023-12-20T14:26:53;6.07;;;1.80;;
9467;SDS011;4772;52.382;9.752;2023-12-20T14:29:19;5.23;;;1.80;;
9467;SDS011;4772;52.382;9.752;2023-12-20T14:31:45;7.43;;;2.37;;
9467;SDS011;4772;52.382;9.752;2023-12-20T14:34:11;8.73;;;2.23;;
9467;SDS011;4772;52.382;9.752;2023-12-20T14:36:37;5.47;;;2.00;;
9467;SDS011;4772;52.382;9.752;2023-12-20T14:39:03;6.17;;;1.97;;
9467;SDS011;4772;52.382;9.752;2023-12-20T14:41:30;7.03;;;2.00;;
9467;SDS011;4772;52.382;9.752;2023-12-20T14:43:56;6.07;;;2.03;;
9467;SDS011;4772;52.382;9.752;2023-12-20T14:46:22;7.90;;;2.07;;
9467;SDS011;4772;52.382;9.752;2023-12-20T14:48:48;6.20;;;1.90;;
9467;SDS011;4772;52.382;9.752;2023-12-20T14:51:14;7.47;;;2.57;;
9467;SDS011;4772;52.382;9.752;2023-12-20T14:53:40;7.20;;;2.00;;
9467;SDS011;4772;52.382;9.752;2023-12-20T14:56:07;5.77;;;1.97;;
9467;SDS011;4772;52.382;9.752;2023-12-20T14:58:33;6.47;;;1.80;;
9467;SDS011;4772;52.382;9.752;2023-12-20T15:01:00;5.07;;;1.97;;
9467;SDS011;4772;52.382;9.752;2023-12-20T15:03:27;9.70;;;2.00;;
9467;SDS011;4772;52.382;9.752;2023-12-20T15:05:53;5.30;;;1.93;;
9467;SDS011;4772;52.382;9.752;2023-12-20T15:08:19;5.50;;;2.00;;
9467;SDS011;4772;52.382;9.752;2023-12-20T15:10:46;11.00;;;2.57;;
9467;SDS011;4772;52.382;9.752;2023-12-20T15:13:12;8.17;;;2.10;;